Time;durP1;ratioP1;P1;durP2;ratioP2;P2;SDS_P1;SDS_P2;PMS_P1;PMS_P2;Temp;Humidity;BMP_temperature;BMP_pressure;BME280_temperature;BME280_humidity;BME280_pressure;Samples;Min_cycle;Max_cycle;Signal;HPM_P1;HPM_P2
2022/11/01 00:01:34;;;;;;;;;;;11.50;80.40;;;10.51;74.69;97008.44;5047453;28;19927;-83
2022/11/01 00:04:02;;;;;;;;;;;11.50;80.50;;;10.52;74.49;97007.38;5065181;28;19921;-83
2022/11/01 00:06:30;;;;;;;;;;;11.50;80.50;;;10.53;74.32;97008.19;5047099;28;19927;-83
2022/11/01 00:08:58;;;;;;;;;;;11.50;80.30;;;10.52;74.54;97009.28;5064220;28;19926;-82
2022/11/01 00:11:27;;;;;;;;;;;11.50;80.40;;;10.52;74.61;97006.56;5063945;28;19920;-82
2022/11/01 00:13:55;;;;;;;;;;;11.50;80.40;;;10.52;74.69;97009.28;5065012;28;19920;-83
2022/11/01 00:16:23;;;;;;;;;;;11.50;80.50;;;10.52;74.61;97009.28;5063806;28;19920;-82
2022/11/01 00:18:51;;;;;;;;;;;11.50;80.50;;;10.52;74.69;97004.63;5047295;28;19927;-83
2022/11/01 00:21:19;;;;;;;;;;;11.50;80.60;;;10.52;74.54;97003.81;5047099;28;19943;-82
2022/11/01 00:23:48;;;;;;;;;;;11.50;80.60;;;10.52;74.62;97003.81;5063956;28;19944;-83
2022/11/01 00:26:17;;;;;;;;;;;11.50;80.50;;;10.52;74.78;97003.81;5063581;28;19920;-82
2022/11/01 00:28:46;;;;;;;;;;;11.50;80.70;;;10.51;74.76;96999.41;5063410;28;19926;-83
2022/11/01 00:31:14;;;;;;;;;;;11.50;80.50;;;10.49;74.59;96994.19;5046863;28;19928;-82
2022/11/01 00:33:42;;;;;;;;;;;11.50;80.50;;;10.51;74.26;97002.16;5063596;28;20242;-83
2022/11/01 00:36:10;;;;;;;;;;;11.50;80.40;;;10.51;74.61;96997.50;5030201;28;19928;-83
2022/11/01 00:38:38;;;;;;;;;;;11.50;80.50;;;10.51;74.53;97007.63;5063039;28;20131;-82
2022/11/01 00:41:06;;;;;;;;;;;11.50;80.40;;;10.49;74.42;96994.19;5064803;28;19926;-82
2022/11/01 00:43:35;;;;;;;;;;;11.50;80.30;;;10.50;74.40;97000.50;5064642;28;19920;-83
2022/11/01 00:46:05;;;;;;;;;;;11.50;80.40;;;10.50;74.28;96998.56;5064244;28;19920;-82
2022/11/01 00:48:33;;;;;;;;;;;11.50;80.40;;;10.51;74.61;96996.69;5064643;28;19927;-82
2022/11/01 00:51:01;;;;;;;;;;;11.50;80.40;;;10.50;74.57;96995.03;5063676;28;19921;-83
2022/11/01 00:53:29;;;;;;;;;;;11.50;80.50;;;10.50;74.53;96992.28;5063347;28;19920;-82
2022/11/01 00:56:00;;;;;;;;;;;11.50;80.50;;;10.51;74.47;96996.69;5046469;28;19920;-83
2022/11/01 00:58:28;;;;;;;;;;;11.50;80.60;;;10.50;74.64;96997.75;5046746;28;19926;-83
2022/11/01 01:00:56;;;;;;;;;;;11.50;80.50;;;10.50;74.68;96997.75;5064377;28;19920;-83
2022/11/01 01:03:25;;;;;;;;;;;11.50;80.40;;;10.49;74.68;96996.09;5064115;28;19920;-83
2022/11/01 01:05:53;;;;;;;;;;;11.50;80.40;;;10.50;74.20;96995.84;5063754;28;19921;-82
2022/11/01 01:08:21;;;;;;;;;;;11.50;80.40;;;10.50;74.63;96995.03;5063176;28;20220;-83
2022/11/01 01:10:50;;;;;;;;;;;11.50;80.50;;;10.50;74.30;96989.53;5068486;28;19921;-82
2022/11/01 01:13:17;;;;;;;;;;;11.50;80.50;;;10.50;74.52;96992.28;5082366;28;19924;-82
2022/11/01 01:15:45;;;;;;;;;;;11.50;80.40;;;10.50;74.82;96989.53;5082688;28;19927;-82
2022/11/01 01:18:13;;;;;;;;;;;11.50;80.50;;;10.50;74.75;96989.53;5083215;28;19921;-82
2022/11/01 01:20:43;;;;;;;;;;;11.50;80.60;;;10.48;74.64;96994.44;5083117;28;19920;-83
2022/11/01 01:23:11;;;;;;;;;;;11.50;80.60;;;10.49;74.77;96994.19;5083025;28;19920;-82
2022/11/01 01:25:40;;;;;;;;;;;11.50;80.80;;;10.49;74.80;96998.84;5082576;28;19926;-82
2022/11/01 01:28:08;;;;;;;;;;;11.50;80.70;;;10.49;74.58;96990.63;5083103;28;19949;-82
2022/11/01 01:30:37;;;;;;;;;;;11.50;80.70;;;10.49;74.52;96988.69;5082950;28;20208;-82
2022/11/01 01:33:06;;;;;;;;;;;11.50;80.70;;;10.48;74.65;96991.69;5066051;28;19920;-83
2022/11/01 01:35:33;;;;;;;;;;;11.50;80.50;;;10.49;74.40;96990.63;5065640;28;19920;-83
2022/11/01 01:38:03;;;;;;;;;;;11.50;80.50;;;10.48;74.53;96988.97;5063912;28;20226;-83
2022/11/01 01:40:31;;;;;;;;;;;11.50;80.40;;;10.48;74.53;96991.69;5062545;28;19928;-82
2022/11/01 01:43:00;;;;;;;;;;;11.50;80.50;;;10.48;74.53;96983.50;5062512;28;19927;-82
2022/11/01 01:45:34;;;;;;;;;;;11.50;80.60;;;10.47;74.49;96984.56;5063152;28;19920;-82
2022/11/01 01:48:17;;;;;;;;;;;11.50;80.70;;;10.47;74.91;96981.81;5046005;28;20123;-82
2022/11/01 01:50:48;;;;;;;;;;;11.50;80.70;;;10.46;74.50;96980.97;5044795;28;20212;-82
2022/11/01 01:53:21;;;;;;;;;;;11.40;80.50;;;10.47;74.75;96979.09;5062341;28;19921;-83
2022/11/01 01:55:53;;;;;;;;;;;11.40;80.50;;;10.47;74.55;96982.66;5029179;28;20102;-83
2022/11/01 01:58:23;;;;;;;;;;;11.50;80.70;;;10.47;74.83;96976.34;5062434;28;19920;-83
2022/11/01 02:00:51;;;;;;;;;;;11.40;80.70;;;10.44;74.63;96981.25;5063610;28;19927;-83
2022/11/01 02:03:19;;;;;;;;;;;11.40;80.50;;;10.47;74.45;96979.09;5062350;28;19924;-83
2022/11/01 02:05:48;;;;;;;;;;;11.40;80.50;;;10.46;74.63;96985.66;5062055;28;19921;-82
2022/11/01 02:08:26;;;;;;;;;;;11.40;80.80;;;10.47;74.74;96984.56;5062306;28;19921;-82
2022/11/01 02:10:55;;;;;;;;;;;11.40;80.70;;;10.46;74.93;96982.91;5062291;28;19923;-83
2022/11/01 02:13:23;;;;;;;;;;;11.40;80.70;;;10.46;74.60;96977.44;5063143;28;19921;-83
2022/11/01 02:15:59;;;;;;;;;;;11.40;80.60;;;10.47;74.83;96984.56;5061960;28;20112;-83
2022/11/01 02:18:31;;;;;;;;;;;11.40;80.60;;;10.46;74.82;96983.72;5063521;28;19920;-83
2022/11/01 02:21:30;;;;;;;;;;;11.40;80.90;;;10.46;75.13;96974.69;5063118;28;19927;-83
2022/11/01 02:24:34;;;;;;;;;;;11.40;81.00;;;10.47;74.97;96984.56;5035764;28;19920;-83
2022/11/01 02:27:25;;;;;;;;;;;11.40;80.80;;;10.46;74.82;96982.91;5044753;28;19920;-83
2022/11/01 02:30:14;;;;;;;;;;;11.40;80.80;;;10.46;74.75;96982.91;5060159;28;19921;-83
2022/11/01 02:32:57;;;;;;;;;;;11.40;80.70;;;10.46;75.00;96982.91;5061907;28;19920;-83
2022/11/01 02:35:29;;;;;;;;;;;11.40;80.70;;;10.45;75.00;96982.09;5061455;28;19929;-83
2022/11/01 02:38:01;;;;;;;;;;;11.40;81.60;;;10.44;74.81;96981.25;5062129;28;19927;-83
2022/11/01 02:40:33;;;;;;;;;;;11.40;80.70;;;10.46;74.89;96982.91;5045283;28;19920;-83
2022/11/01 02:43:02;;;;;;;;;;;11.40;80.80;;;10.44;74.87;96981.25;5063138;28;19927;-83
2022/11/01 02:45:32;;;;;;;;;;;11.40;80.70;;;10.44;74.77;96983.97;5061402;28;19927;-83
2022/11/01 02:48:01;;;;;;;;;;;11.40;80.60;;;10.44;74.84;96986.72;5063132;28;20212;-83
2022/11/01 02:50:30;;;;;;;;;;;11.40;80.60;;;10.44;74.67;96986.72;5061835;28;20120;-82
2022/11/01 02:52:58;;;;;;;;;;;11.40;80.80;;;10.44;74.63;96992.19;5061803;28;19926;-83
2022/11/01 02:55:29;;;;;;;;;;;11.40;80.70;;;10.43;74.93;96979.59;5044505;28;19921;-83
2022/11/01 02:57:59;;;;;;;;;;;11.40;80.70;;;10.44;74.45;96983.97;5045186;28;19920;-82
2022/11/01 03:00:28;;;;;;;;;;;11.40;80.60;;;10.44;74.76;96985.91;5045009;28;19921;-83
2022/11/01 03:02:59;;;;;;;;;;;11.40;80.70;;;10.44;74.51;96989.47;5064813;28;19922;-82
2022/11/01 03:05:33;;;;;;;;;;;11.40;80.50;;;10.44;75.00;96985.91;5031327;28;19927;-83
2022/11/01 03:08:02;;;;;;;;;;;11.40;80.70;;;10.46;74.31;96991.13;5065304;28;19924;-82
2022/11/01 03:10:36;;;;;;;;;;;11.40;80.40;;;10.45;74.37;96987.56;5065100;28;19920;-83
2022/11/01 03:13:07;;;;;;;;;;;11.40;80.50;;;10.43;74.13;96985.06;5065042;28;20209;-83
2022/11/01 03:15:38;;;;;;;;;;;11.40;80.30;;;10.43;74.67;96986.97;5064575;28;19921;-83
2022/11/01 03:18:10;;;;;;;;;;;11.40;80.30;;;10.44;74.59;96992.19;5065115;28;19921;-83
2022/11/01 03:20:47;;;;;;;;;;;11.40;80.40;;;10.43;74.81;96993.28;5065007;28;19927;-83
2022/11/01 03:23:16;;;;;;;;;;;11.40;80.50;;;10.43;74.38;96989.72;5047970;28;19920;-83
2022/11/01 03:25:46;;;;;;;;;;;11.40;80.60;;;10.42;74.43;96999.81;5047855;28;19924;-83
2022/11/01 03:28:15;;;;;;;;;;;11.40;80.40;;;10.43;74.56;97000.66;5065956;28;19921;-83
2022/11/01 03:30:46;;;;;;;;;;;11.40;80.50;;;10.42;74.73;96994.34;5064895;28;19927;-83
2022/11/01 03:33:14;;;;;;;;;;;11.40;80.70;;;10.42;74.79;97002.56;5047796;28;19927;-83
2022/11/01 03:35:45;;;;;;;;;;;11.40;80.80;;;10.42;74.65;96997.09;5064397;28;19920;-83
2022/11/01 03:38:17;;;;;;;;;;;11.40;80.40;;;10.42;74.41;97005.28;5048074;28;19920;-83
2022/11/01 03:40:48;;;;;;;;;;;11.40;80.50;;;10.43;74.62;97000.66;5048056;28;19920;-83
2022/11/01 03:43:18;;;;;;;;;;;11.40;80.50;;;10.42;74.58;96999.81;5064407;28;20156;-83
2022/11/01 03:45:46;;;;;;;;;;;11.40;80.60;;;10.42;74.88;97001.75;5065362;28;19920;-83
2022/11/01 03:48:14;;;;;;;;;;;11.40;80.70;;;10.42;74.52;97005.28;5064434;28;19921;-82
2022/11/01 03:50:48;;;;;;;;;;;11.40;80.80;;;10.41;74.75;97003.63;5064519;28;19942;-82
2022/11/01 03:53:16;;;;;;;;;;;11.40;80.70;;;10.41;74.67;97003.63;5064001;28;19927;-82
2022/11/01 03:55:44;;;;;;;;;;;11.40;80.60;;;10.40;74.67;97004.72;5064140;28;20115;-83
2022/11/01 03:58:12;;;;;;;;;;;11.40;80.70;;;10.41;74.61;97009.13;5064324;28;19927;-83
2022/11/01 04:00:42;;;;;;;;;;;11.40;80.70;;;10.41;74.79;97002.81;5046736;28;19927;-83
2022/11/01 04:03:10;;;;;;;;;;;11.40;80.60;;;10.40;74.62;97001.16;5030401;28;19920;-83
2022/11/01 04:05:39;;;;;;;;;;;11.40;80.70;;;10.41;74.73;97005.56;5047136;28;19920;-83
2022/11/01 04:08:09;;;;;;;;;;;11.40;80.80;;;10.40;74.81;97004.72;5064284;28;19920;-83
2022/11/01 04:10:37;;;;;;;;;;;11.40;80.60;;;10.41;74.70;96997.34;5047368;28;19920;-83
2022/11/01 04:13:05;;;;;;;;;;;11.40;80.60;;;10.41;74.76;97000.91;5046133;28;19937;-82
2022/11/01 04:21:05;;;;;;;;;;;11.40;80.30;;;10.39;74.48;96994.84;5063799;28;20115;-83
2022/11/01 04:23:35;;;;;;;;;;;11.40;80.50;;;10.40;74.87;96995.69;5047060;28;19925;-83
2022/11/01 04:26:03;;;;;;;;;;;11.40;80.70;;;10.39;74.50;96989.38;5063701;28;19920;-83
2022/11/01 04:28:31;;;;;;;;;;;11.40;80.50;;;10.40;74.89;96995.69;5047334;28;20124;-83
2022/11/01 04:30:59;;;;;;;;;;;11.40;80.70;;;10.39;74.64;96994.84;5063922;28;19921;-83
2022/11/01 04:33:27;;;;;;;;;;;11.40;80.70;;;10.39;74.57;96994.84;5046960;28;19921;-83
2022/11/01 04:35:55;;;;;;;;;;;11.40;80.60;;;10.39;74.85;96989.38;5046649;28;19920;-83
2022/11/01 04:38:23;;;;;;;;;;;11.40;80.80;;;10.39;74.84;96996.75;5064877;28;19920;-82
2022/11/01 04:40:52;;;;;;;;;;;11.40;80.70;;;10.39;74.62;96983.06;5046957;28;19921;-83
2022/11/01 04:43:22;;;;;;;;;;;11.40;80.50;;;10.38;74.36;96990.47;5063417;28;20235;-83
2022/11/01 04:45:54;;;;;;;;;;;11.40;80.50;;;10.38;74.86;96987.75;5046864;28;20112;-82
2022/11/01 04:48:22;;;;;;;;;;;11.40;80.70;;;10.39;74.79;96999.50;5063709;28;20228;-82
2022/11/01 04:50:50;;;;;;;;;;;11.40;80.50;;;10.39;74.78;96996.75;5063535;28;19926;-83
2022/11/01 04:53:18;;;;;;;;;;;11.40;80.70;;;10.39;75.09;96997.56;5064513;28;19920;-83
2022/11/01 04:55:46;;;;;;;;;;;11.40;80.90;;;10.38;74.80;96990.47;5063007;28;19921;-83
2022/11/01 04:58:15;;;;;;;;;;;11.40;80.70;;;10.38;74.73;96993.22;5046742;28;19927;-83
2022/11/01 05:00:43;;;;;;;;;;;11.40;80.80;;;10.37;74.92;96997.00;5063462;28;19920;-83
2022/11/01 05:03:11;;;;;;;;;;;11.40;80.80;;;10.38;74.51;96993.22;5063353;28;19920;-82
2022/11/01 05:05:40;;;;;;;;;;;11.40;80.60;;;10.38;74.59;96995.09;5062882;28;20093;-83
2022/11/01 05:08:08;;;;;;;;;;;11.40;80.70;;;10.37;74.63;96994.25;5063200;28;20116;-83
2022/11/01 05:10:37;;;;;;;;;;;11.30;80.70;;;10.38;74.76;96997.84;5046494;28;20124;-83
2022/11/01 05:13:05;;;;;;;;;;;11.30;80.80;;;10.36;74.78;97003.53;5064333;28;19920;-82
2022/11/01 05:15:35;;;;;;;;;;;11.40;80.60;;;10.37;74.46;96998.88;5062507;28;19942;-82
2022/11/01 05:18:03;;;;;;;;;;;11.30;80.70;;;10.36;74.67;97003.53;5046430;28;19921;-83
2022/11/01 05:20:31;;;;;;;;;;;11.40;80.90;;;10.37;74.84;97007.94;5063172;28;19924;-82
2022/11/01 05:22:59;;;;;;;;;;;11.30;80.70;;;10.37;74.48;97002.47;5046325;28;19935;-83
2022/11/01 05:25:27;;;;;;;;;;;11.30;80.70;;;10.37;74.91;97001.63;5063265;28;19920;-82
2022/11/01 05:27:59;;;;;;;;;;;11.30;80.70;;;10.37;74.77;97007.94;5062973;28;19921;-82
2022/11/01 05:30:27;;;;;;;;;;;11.30;80.70;;;10.37;74.56;97013.41;5064065;28;19920;-83
2022/11/01 05:32:58;;;;;;;;;;;11.40;80.60;;;10.36;74.83;97009.00;5062723;28;19921;-83
2022/11/01 05:35:26;;;;;;;;;;;11.30;80.70;;;10.36;74.66;97006.28;5045527;28;19927;-83
2022/11/01 05:37:55;;;;;;;;;;;11.30;80.70;;;10.36;74.62;97009.00;5062855;28;19927;-83
2022/11/01 05:40:23;;;;;;;;;;;11.30;80.70;;;10.36;74.82;97006.28;5046096;28;19920;-82
2022/11/01 05:42:51;;;;;;;;;;;11.30;80.80;;;10.34;75.07;97005.69;5046086;28;19943;-83
2022/11/01 05:45:19;;;;;;;;;;;11.30;80.90;;;10.36;74.79;97011.75;5063297;28;20112;-83
2022/11/01 05:47:47;;;;;;;;;;;11.30;80.80;;;10.36;74.73;97011.75;5029580;28;19920;-83
2022/11/01 05:50:17;;;;;;;;;;;11.30;80.80;;;10.36;74.71;97006.28;5063798;28;19927;-83
2022/11/01 05:52:44;;;;;;;;;;;11.30;81.70;;;10.37;74.74;97010.69;5062730;28;19946;-83
2022/11/01 05:55:12;;;;;;;;;;;11.30;80.90;;;10.35;74.86;97012.81;5063089;28;19921;-83
2022/11/01 05:57:40;;;;;;;;;;;11.30;80.70;;;10.37;74.81;97018.88;5045951;28;19921;-83
2022/11/01 06:00:10;;;;;;;;;;;11.30;80.70;;;10.37;74.63;97015.31;5045876;28;19920;-82
2022/11/01 06:02:41;;;;;;;;;;;11.30;80.70;;;10.34;74.98;97008.44;5045745;28;19927;-83
2022/11/01 06:05:10;;;;;;;;;;;11.30;80.80;;;10.36;75.01;97014.50;5061954;28;19920;-82
2022/11/01 06:07:39;;;;;;;;;;;11.30;80.90;;;10.36;74.64;97011.75;5062343;28;19939;-83
2022/11/01 06:10:08;;;;;;;;;;;11.40;80.80;;;10.37;74.85;97013.41;5062147;28;19920;-83
2022/11/01 06:12:36;;;;;;;;;;;11.30;81.00;;;10.36;74.68;97014.50;5045477;28;19920;-83
2022/11/01 06:15:05;;;;;;;;;;;11.30;80.80;;;10.37;74.71;97018.88;5061698;28;19926;-83
2022/11/01 06:17:33;;;;;;;;;;;11.30;80.80;;;10.34;74.80;97013.91;5062228;28;19921;-82
2022/11/01 06:20:01;;;;;;;;;;;11.30;80.90;;;10.37;74.86;97023.50;5045704;28;19935;-83
2022/11/01 06:22:29;;;;;;;;;;;11.30;80.80;;;10.37;74.88;97029.00;5062350;28;20120;-83
2022/11/01 06:24:59;;;;;;;;;;;11.30;80.70;;;10.37;74.81;97029.00;5061582;28;20226;-83
2022/11/01 06:27:27;;;;;;;;;;;11.30;80.70;;;10.37;74.97;97024.38;5063378;28;19921;-83
2022/11/01 06:29:55;;;;;;;;;;;11.30;80.80;;;10.36;74.84;97022.69;5045455;28;19927;-83
2022/11/01 06:32:23;;;;;;;;;;;11.30;81.00;;;10.36;75.11;97028.19;5062227;28;19921;-83
2022/11/01 06:34:51;;;;;;;;;;;11.40;81.00;;;10.36;75.28;97028.19;5061414;28;19920;-83
2022/11/01 06:37:19;;;;;;;;;;;11.30;81.10;;;10.36;75.01;97033.66;5047721;28;19920;-83
2022/11/01 06:39:47;;;;;;;;;;;11.40;81.10;;;10.37;75.07;97039.94;5065433;28;19927;-83
2022/11/01 06:42:17;;;;;;;;;;;11.30;80.80;;;10.37;74.70;97034.47;5065732;28;19920;-83
2022/11/01 06:44:45;;;;;;;;;;;11.40;80.70;;;10.36;74.58;97033.66;5064914;28;19920;-83
2022/11/01 06:47:13;;;;;;;;;;;11.40;80.60;;;10.37;74.61;97034.47;5048752;28;19921;-83
2022/11/01 06:49:41;;;;;;;;;;;11.30;80.70;;;10.36;74.82;97039.13;5065480;28;20246;-82
2022/11/01 06:52:09;;;;;;;;;;;11.40;80.70;;;10.37;74.79;97034.47;5032217;28;20234;-83
2022/11/01 06:54:37;;;;;;;;;;;11.30;80.90;;;10.37;74.82;97040.78;5064990;28;19920;-83
2022/11/01 06:57:05;;;;;;;;;;;11.40;80.80;;;10.36;74.69;97039.13;5066546;28;19921;-83
2022/11/01 06:59:34;;;;;;;;;;;11.40;80.60;;;10.36;74.37;97033.66;5065354;28;20120;-83
2022/11/01 07:02:02;;;;;;;;;;;11.30;80.50;;;10.37;74.83;97035.31;5048449;28;19934;-83
2022/11/01 07:04:30;;;;;;;;;;;11.40;80.50;;;10.37;74.87;97035.31;5066131;28;19921;-82
2022/11/01 07:06:58;;;;;;;;;;;11.40;80.70;;;10.38;74.77;97037.00;5064879;28;19921;-83
2022/11/01 07:09:26;;;;;;;;;;;11.40;80.60;;;10.38;75.03;97036.16;5048392;28;19934;-83
2022/11/01 07:11:54;;;;;;;;;;;11.40;80.80;;;10.37;74.85;97046.25;5065085;28;20147;-83
2022/11/01 07:14:22;;;;;;;;;;;11.40;80.60;;;10.37;74.58;97035.31;5064829;28;19920;-83
2022/11/01 07:16:52;;;;;;;;;;;11.40;80.70;;;10.38;74.87;97033.41;5064563;28;20212;-83
2022/11/01 07:19:21;;;;;;;;;;;11.40;80.60;;;10.38;74.83;97031.53;5065102;28;19920;-83
2022/11/01 07:21:49;;;;;;;;;;;11.40;80.50;;;10.39;74.89;97032.34;5064961;28;19924;-83
2022/11/01 07:24:17;;;;;;;;;;;11.40;80.70;;;10.39;74.63;97040.56;5064770;28;19920;-83
2022/11/01 07:26:45;;;;;;;;;;;11.40;80.60;;;10.38;74.61;97039.75;5047958;28;19920;-83
2022/11/01 07:29:13;;;;;;;;;;;11.40;80.60;;;10.38;74.71;97034.25;5064728;28;20239;-83
2022/11/01 07:31:41;;;;;;;;;;;11.40;80.60;;;10.39;74.90;97033.16;5065961;28;19921;-83
2022/11/01 07:34:10;;;;;;;;;;;11.40;80.60;;;10.40;74.76;97034.81;5064403;28;19943;-83
2022/11/01 07:36:38;;;;;;;;;;;11.40;80.70;;;10.40;74.88;97032.09;5064429;28;19920;-82
2022/11/01 07:39:06;;;;;;;;;;;11.40;80.50;;;10.40;74.75;97040.28;5064639;28;19943;-84
2022/11/01 07:41:34;;;;;;;;;;;11.40;80.50;;;10.41;74.86;97041.16;5064572;28;20051;-83
2022/11/01 07:44:02;;;;;;;;;;;11.40;80.50;;;10.41;74.73;97036.47;5064537;28;19920;-83
2022/11/01 07:46:31;;;;;;;;;;;11.40;80.70;;;10.42;74.86;97042.81;5064066;28;19920;-83
2022/11/01 07:48:59;;;;;;;;;;;11.40;80.80;;;10.41;74.79;97041.97;5064701;28;20132;-83
2022/11/01 07:51:29;;;;;;;;;;;11.40;80.70;;;10.42;74.59;97032.66;5047679;28;19920;-83
2022/11/01 07:53:57;;;;;;;;;;;11.40;80.60;;;10.42;74.93;97043.63;5047559;28;19926;-83
2022/11/01 07:56:25;;;;;;;;;;;11.40;80.70;;;10.42;75.04;97035.41;5064983;28;19920;-83
2022/11/01 07:58:53;;;;;;;;;;;11.40;80.80;;;10.42;75.18;97035.41;5047748;28;19920;-83
2022/11/01 08:01:21;;;;;;;;;;;11.40;80.80;;;10.42;74.92;97038.16;5047436;28;19931;-83
2022/11/01 08:03:49;;;;;;;;;;;11.40;80.70;;;10.42;74.52;97029.94;5064400;28;19921;-83
2022/11/01 08:06:17;;;;;;;;;;;11.40;80.60;;;10.42;74.56;97029.94;5063992;28;19927;-83
2022/11/01 08:08:47;;;;;;;;;;;11.40;80.50;;;10.43;74.50;97031.59;5065388;28;19927;-83
2022/11/01 08:11:14;;;;;;;;;;;11.40;80.40;;;10.43;74.45;97033.50;5047298;28;19921;-83
2022/11/01 08:13:42;;;;;;;;;;;11.40;80.50;;;10.43;74.55;97034.34;5064021;28;19923;-82
2022/11/01 08:16:12;;;;;;;;;;;11.40;80.50;;;10.43;74.91;97028.84;5063562;28;20204;-83
2022/11/01 08:18:40;;;;;;;;;;;11.40;80.60;;;10.43;74.55;97028.84;5047647;28;19920;-82
2022/11/01 08:21:08;;;;;;;;;;;11.40;80.60;;;10.43;74.76;97022.56;5047221;28;19927;-83
2022/11/01 08:23:36;;;;;;;;;;;11.40;80.60;;;10.44;74.92;97022.31;5063934;28;19920;-82
2022/11/01 08:26:05;;;;;;;;;;;11.40;80.80;;;10.44;74.79;97019.56;5046220;28;19927;-83
2022/11/01 08:28:33;;;;;;;;;;;11.40;80.80;;;10.44;74.87;97014.09;5063871;28;19920;-83
2022/11/01 08:31:05;;;;;;;;;;;11.40;80.90;;;10.44;74.92;97019.56;5064823;28;19927;-83
2022/11/01 08:33:33;;;;;;;;;;;11.40;80.80;;;10.43;74.99;97017.91;5064851;28;19928;-82
2022/11/01 08:36:01;;;;;;;;;;;11.40;80.90;;;10.43;75.23;97017.91;5063202;28;19927;-82
2022/11/01 08:38:29;;;;;;;;;;;11.40;81.10;;;10.44;75.23;97022.31;5047103;28;19931;-83
2022/11/01 08:40:57;;;;;;;;;;;11.40;81.20;;;10.44;74.98;97022.31;5063488;28;19927;-83
2022/11/01 08:43:27;;;;;;;;;;;11.40;81.00;;;10.43;75.44;97023.38;5063593;28;20287;-83
2022/11/01 08:45:55;;;;;;;;;;;11.40;81.40;;;10.45;75.79;97023.16;5063299;28;19920;-83
2022/11/01 08:48:23;;;;;;;;;;;11.40;81.60;;;10.44;75.15;97018.75;5046949;28;19920;-83
2022/11/01 08:50:51;;;;;;;;;;;11.40;81.20;;;10.44;75.73;97016.00;5046863;28;19920;-83
2022/11/01 08:53:19;;;;;;;;;;;11.50;81.70;;;10.44;75.83;97013.28;5046737;28;19920;-83
2022/11/01 08:55:47;;;;;;;;;;;11.40;81.60;;;10.44;75.66;97014.09;5046336;28;19931;-83
2022/11/01 08:58:15;;;;;;;;;;;11.50;81.70;;;10.47;75.45;97022.88;5063527;28;19921;-83
2022/11/01 09:00:45;;;;;;;;;;;11.50;81.60;;;10.46;75.79;97015.75;5046094;28;19920;-83
2022/11/01 09:03:14;;;;;;;;;;;11.40;81.60;;;10.45;75.46;97020.41;5046704;28;19927;-84
2022/11/01 09:05:42;;;;;;;;;;;11.50;81.80;;;10.47;75.84;97022.88;5062993;28;19925;-83
2022/11/01 09:08:10;;;;;;;;;;;11.50;81.70;;;10.48;75.70;97013.59;5046799;28;19920;-83
2022/11/01 09:10:38;;;;;;;;;;;11.50;81.70;;;10.47;76.01;97012.75;5063099;28;19927;-83
2022/11/01 09:13:06;;;;;;;;;;;11.50;81.70;;;10.48;76.17;96999.91;5046584;28;19928;-83
2022/11/01 09:15:34;;;;;;;;;;;11.50;81.60;;;10.50;75.46;97008.72;5045892;28;19921;-83
2022/11/01 09:18:06;;;;;;;;;;;11.50;81.60;;;10.51;75.49;97007.63;5063324;28;19921;-83
2022/11/01 09:20:34;;;;;;;;;;;11.50;81.60;;;10.51;75.83;97002.16;5046201;28;20101;-83
2022/11/01 09:23:02;;;;;;;;;;;11.50;81.60;;;10.50;75.79;96997.75;5046342;28;19920;-83
2022/11/01 09:25:30;;;;;;;;;;;11.50;81.70;;;10.51;75.89;96997.50;5062383;28;20365;-83
2022/11/01 09:27:58;;;;;;;;;;;11.50;81.70;;;10.52;75.53;96992.88;5046384;28;19921;-84
2022/11/01 09:30:27;;;;;;;;;;;11.50;81.70;;;10.53;75.61;97005.44;5046224;28;20124;-84
2022/11/01 09:32:55;;;;;;;;;;;11.50;81.70;;;10.53;75.47;96999.97;5062732;28;19920;-83
2022/11/01 09:35:24;;;;;;;;;;;11.50;81.70;;;10.53;75.63;96995.34;5045605;28;19921;-83
2022/11/01 09:37:57;;;;;;;;;;;11.50;81.70;;;10.52;75.73;96998.34;5062859;28;19920;-83
2022/11/01 09:40:26;;;;;;;;;;;11.50;81.70;;;10.54;75.99;96986.06;5062819;28;19920;-84
2022/11/01 09:42:54;;;;;;;;;;;11.50;81.80;;;10.56;75.60;96994.00;5046185;28;19924;-83
2022/11/01 09:45:23;;;;;;;;;;;11.60;81.80;;;10.57;75.87;96985.56;5076340;28;19927;-83
2022/11/01 09:47:52;;;;;;;;;;;11.60;81.80;;;10.61;75.87;96976.81;5099879;28;20230;-83
2022/11/01 09:50:22;;;;;;;;;;;11.60;81.60;;;10.62;75.71;96976.59;5082716;28;19924;-83
2022/11/01 09:52:52;;;;;;;;;;;11.60;81.50;;;10.65;75.73;96975.25;5066026;28;19920;-83
2022/11/01 09:55:24;;;;;;;;;;;11.60;81.50;;;10.68;75.68;96970.09;5082086;28;19920;-83
2022/11/01 09:57:54;;;;;;;;;;;11.70;81.50;;;10.71;75.51;96964.09;5065990;28;19926;-83
2022/11/01 10:00:22;;;;;;;;;;;11.70;81.40;;;10.73;75.63;96972.06;5082719;28;19920;-84
2022/11/01 10:03:19;;;;;;;;;;;11.70;81.30;;;10.74;75.37;96970.97;5065696;28;19920;-84
2022/11/01 10:05:50;;;;;;;;;;;11.70;81.40;;;10.77;75.43;96973.22;5050484;28;19927;-83
2022/11/01 10:08:29;;;;;;;;;;;11.80;81.20;;;10.79;75.25;96968.31;5045784;28;19926;-83
2022/11/01 10:11:05;;;;;;;;;;;11.80;81.10;;;10.82;75.39;96969.72;5045911;28;20208;-83
2022/11/01 10:13:39;;;;;;;;;;;11.80;81.00;;;10.83;75.37;96960.44;5049108;28;19924;-84
2022/11/01 10:16:09;;;;;;;;;;;11.80;81.00;;;10.84;74.84;96959.34;5065571;28;20115;-83
2022/11/01 10:18:39;;;;;;;;;;;11.80;80.90;;;10.86;75.04;96960.75;5049272;28;19927;-83
2022/11/01 10:21:11;;;;;;;;;;;11.90;80.90;;;10.87;75.00;96951.44;5065980;28;19925;-83
2022/11/01 10:23:43;;;;;;;;;;;11.90;80.90;;;10.88;75.12;96947.63;5065678;28;20216;-83
2022/11/01 10:26:13;;;;;;;;;;;11.90;80.80;;;10.89;74.87;96945.72;5065646;28;19921;-84
2022/11/01 10:28:46;;;;;;;;;;;11.90;80.70;;;10.90;74.73;96944.66;5049163;28;19921;-83
2022/11/01 10:31:16;;;;;;;;;;;11.90;80.70;;;10.90;74.91;96939.16;5065756;28;20315;-83
2022/11/01 10:33:47;;;;;;;;;;;11.90;80.60;;;10.90;74.83;96936.44;5048719;28;19928;-84
2022/11/01 10:36:17;;;;;;;;;;;11.90;80.60;;;10.92;74.81;96938.91;5048722;28;20119;-83
2022/11/01 10:38:47;;;;;;;;;;;11.90;80.40;;;10.93;74.63;96930.41;5065567;28;19920;-83
2022/11/01 10:41:20;;;;;;;;;;;11.90;80.50;;;10.94;74.60;96940.31;5065595;28;19920;-83
2022/11/01 10:43:50;;;;;;;;;;;11.90;80.50;;;10.94;74.64;96923.88;5065280;28;19920;-83
2022/11/01 10:46:20;;;;;;;;;;;11.90;80.50;;;10.94;74.63;96940.31;5065150;28;19921;-83
2022/11/01 10:48:49;;;;;;;;;;;11.90;80.50;;;10.94;74.74;96923.88;5048726;28;19926;-83
2022/11/01 10:51:18;;;;;;;;;;;11.90;80.40;;;10.95;74.46;96924.72;5048820;28;19946;-84
2022/11/01 10:53:48;;;;;;;;;;;12.00;80.20;;;10.95;74.45;96920.03;5065421;28;20093;-83
2022/11/01 10:56:18;;;;;;;;;;;12.00;80.20;;;10.94;74.65;96910.16;5081884;28;19925;-83
2022/11/01 10:58:47;;;;;;;;;;;12.00;80.20;;;10.94;74.48;96907.44;5048573;28;20250;-83
2022/11/01 11:01:17;;;;;;;;;;;12.00;80.30;;;10.94;74.52;96907.44;5064958;28;19920;-84
2022/11/01 11:03:45;;;;;;;;;;;12.00;80.30;;;10.94;74.35;96907.44;5048277;28;20213;-84
2022/11/01 11:06:14;;;;;;;;;;;12.00;80.20;;;10.93;74.70;96903.03;5064651;28;19920;-83
2022/11/01 11:08:43;;;;;;;;;;;12.00;80.30;;;10.94;74.48;96901.94;5048533;28;19927;-84
2022/11/01 11:11:14;;;;;;;;;;;11.90;80.30;;;10.93;74.61;96900.28;5048043;28;19926;-83
2022/11/01 11:13:42;;;;;;;;;;;12.00;80.20;;;10.93;74.46;96900.28;5048171;28;19920;-83
2022/11/01 11:16:14;;;;;;;;;;;11.90;80.30;;;10.93;74.81;96894.81;5064852;28;19921;-83
2022/11/01 11:18:42;;;;;;;;;;;12.00;80.40;;;10.93;74.42;96899.47;5048277;28;19943;-83
2022/11/01 11:21:12;;;;;;;;;;;11.90;80.30;;;10.92;74.43;96889.59;5046944;28;19922;-84
2022/11/01 11:23:41;;;;;;;;;;;11.90;80.40;;;10.91;74.59;96886.00;5047506;28;19923;-84
2022/11/01 11:26:12;;;;;;;;;;;11.90;80.40;;;10.91;74.67;96891.50;5047953;28;20208;-84
2022/11/01 11:28:43;;;;;;;;;;;11.90;80.40;;;10.91;74.75;96886.00;5065037;28;20208;-83
2022/11/01 11:31:13;;;;;;;;;;;11.90;80.40;;;10.90;74.76;96884.38;5048085;28;19921;-84
2022/11/01 11:33:48;;;;;;;;;;;11.90;80.40;;;10.91;74.92;96880.53;5047943;28;19921;-84